Time;durP1;ratioP1;P1;durP2;ratioP2;P2;SDS_P1;SDS_P2;PMS_P1;PMS_P2;Temp;Humidity;BMP_temperature;BMP_pressure;BME280_temperature;BME280_humidity;BME280_pressure;Samples;Min_cycle;Max_cycle;Signal;HPM_P1;HPM_P2
2024/01/31 00:01:52;;;;;;;14.07;4.75;;;;;;;;;;5072995;28;20468;-76
2024/01/31 00:04:18;;;;;;;14.70;5.47;;;;;;;;;;5072820;28;20036;-76
2024/01/31 00:06:49;;;;;;;21.95;6.15;;;;;;;;;;5072475;28;20055;-76
2024/01/31 00:09:15;;;;;;;12.90;5.00;;;;;;;;;;5072688;28;20412;-76
2024/01/31 00:11:41;;;;;;;14.43;4.10;;;;;;;;;;5074154;28;20460;-76
2024/01/31 00:14:08;;;;;;;17.17;5.00;;;;;;;;;;5072308;28;20036;-75
2024/01/31 00:16:34;;;;;;;10.80;4.25;;;;;;;;;;5072809;28;20021;-76
2024/01/31 00:19:00;;;;;;;13.18;3.70;;;;;;;;;;5072805;28;20028;-76
2024/01/31 00:21:26;;;;;;;10.15;3.72;;;;;;;;;;5072445;28;20472;-75
2024/01/31 00:23:52;;;;;;;14.93;3.97;;;;;;;;;;5072633;28;20029;-75
2024/01/31 00:26:18;;;;;;;15.68;4.15;;;;;;;;;;5072316;28;20024;-76
2024/01/31 00:28:44;;;;;;;12.40;4.18;;;;;;;;;;5072576;28;20020;-76
2024/01/31 00:31:14;;;;;;;8.70;3.53;;;;;;;;;;5073305;28;20495;-75
2024/01/31 00:33:40;;;;;;;16.23;4.63;;;;;;;;;;5073656;28;20029;-76
2024/01/31 00:36:06;;;;;;;15.38;4.68;;;;;;;;;;5072410;28;20039;-76
2024/01/31 00:38:33;;;;;;;17.48;4.28;;;;;;;;;;5072245;28;20120;-76
2024/01/31 00:40:59;;;;;;;13.65;4.13;;;;;;;;;;5072425;28;20063;-76
2024/01/31 00:43:24;;;;;;;15.88;4.32;;;;;;;;;;5072277;28;20052;-76
2024/01/31 00:45:50;;;;;;;10.77;3.75;;;;;;;;;;5072291;28;20545;-77
2024/01/31 00:48:17;;;;;;;15.88;4.25;;;;;;;;;;5071939;28;20043;-76
2024/01/31 00:50:43;;;;;;;10.88;4.20;;;;;;;;;;5072180;28;20491;-75
2024/01/31 00:53:09;;;;;;;17.80;5.03;;;;;;;;;;5072469;28;20020;-76
2024/01/31 00:55:35;;;;;;;11.90;4.00;;;;;;;;;;5072522;28;20428;-76
2024/01/31 00:58:01;;;;;;;14.57;4.40;;;;;;;;;;5072236;28;20489;-76
2024/01/31 01:00:27;;;;;;;14.10;4.25;;;;;;;;;;5071802;28;20353;-78
2024/01/31 01:02:54;;;;;;;10.52;3.92;;;;;;;;;;5071863;28;20020;-78
2024/01/31 01:05:20;;;;;;;15.45;5.47;;;;;;;;;;5071220;28;20041;-78
2024/01/31 01:07:46;;;;;;;11.35;3.50;;;;;;;;;;5071747;28;20112;-77
2024/01/31 01:10:13;;;;;;;8.93;3.80;;;;;;;;;;5071436;28;20468;-77
2024/01/31 01:12:39;;;;;;;10.80;3.65;;;;;;;;;;5071667;28;20468;-78
2024/01/31 01:15:05;;;;;;;18.65;3.92;;;;;;;;;;5071528;28;20029;-78
2024/01/31 01:17:32;;;;;;;7.55;3.10;;;;;;;;;;5071342;28;20035;-78
2024/01/31 01:19:58;;;;;;;17.38;3.70;;;;;;;;;;5071476;28;20027;-77
2024/01/31 01:22:24;;;;;;;11.60;3.53;;;;;;;;;;5071168;28;20039;-77
2024/01/31 01:24:50;;;;;;;11.25;3.70;;;;;;;;;;5071387;28;20028;-77
2024/01/31 01:27:16;;;;;;;13.73;3.50;;;;;;;;;;5070331;28;20036;-77
2024/01/31 01:29:42;;;;;;;12.32;3.15;;;;;;;;;;5071298;28;20021;-78
2024/01/31 01:32:08;;;;;;;9.38;3.53;;;;;;;;;;5071358;28;20039;-78
2024/01/31 01:34:34;;;;;;;12.00;3.28;;;;;;;;;;5070620;28;20021;-78
2024/01/31 01:37:00;;;;;;;10.70;2.72;;;;;;;;;;5071223;28;20111;-78
2024/01/31 01:39:26;;;;;;;8.07;3.10;;;;;;;;;;5071009;28;20035;-77
2024/01/31 01:41:52;;;;;;;11.15;2.72;;;;;;;;;;5071172;28;20445;-76
2024/01/31 01:44:18;;;;;;;15.43;3.80;;;;;;;;;;5071033;28;20048;-77
2024/01/31 01:46:45;;;;;;;12.60;3.25;;;;;;;;;;5071164;28;20047;-76
2024/01/31 01:49:12;;;;;;;8.88;3.10;;;;;;;;;;5071067;28;20024;-78
2024/01/31 01:51:39;;;;;;;21.00;5.22;;;;;;;;;;5070849;28;20025;-78
2024/01/31 01:54:05;;;;;;;6.65;2.05;;;;;;;;;;5071010;28;20025;-79
2024/01/31 01:56:31;;;;;;;8.63;2.72;;;;;;;;;;5070734;28;20537;-78
2024/01/31 01:58:58;;;;;;;8.40;2.80;;;;;;;;;;5070996;28;20063;-78
2024/01/31 02:01:26;;;;;;;11.05;3.10;;;;;;;;;;5070692;28;20381;-78
2024/01/31 02:03:54;;;;;;;11.82;3.55;;;;;;;;;;5070947;28;20082;-77
2024/01/31 02:06:20;;;;;;;10.45;3.30;;;;;;;;;;5070357;28;20078;-77
2024/01/31 02:08:46;;;;;;;12.32;3.38;;;;;;;;;;5071030;28;20033;-78
2024/01/31 02:11:13;;;;;;;7.68;2.42;;;;;;;;;;5070922;28;20017;-78
2024/01/31 02:13:39;;;;;;;17.10;4.20;;;;;;;;;;5070200;28;20028;-78
2024/01/31 02:16:05;;;;;;;12.45;3.63;;;;;;;;;;5070781;28;20653;-78
2024/01/31 02:18:31;;;;;;;17.48;5.68;;;;;;;;;;5070769;28;20142;-78
2024/01/31 02:20:57;;;;;;;47.78;12.45;;;;;;;;;;5071928;28;20475;-78
2024/01/31 02:23:23;;;;;;;30.98;8.88;;;;;;;;;;5070564;28;20025;-77
2024/01/31 02:25:49;;;;;;;18.17;4.88;;;;;;;;;;5070710;28;20050;-76
2024/01/31 02:28:16;;;;;;;12.98;4.15;;;;;;;;;;5070664;28;20055;-77
2024/01/31 02:30:42;;;;;;;15.30;4.88;;;;;;;;;;5070673;28;20376;-76
2024/01/31 02:33:08;;;;;;;17.05;3.90;;;;;;;;;;5070660;28;20032;-77
2024/01/31 02:35:35;;;;;;;17.85;4.10;;;;;;;;;;5070361;28;20127;-77
2024/01/31 02:38:01;;;;;;;14.25;4.22;;;;;;;;;;5073055;28;20024;-77
2024/01/31 02:40:30;;;;;;;12.77;3.80;;;;;;;;;;5074339;28;20029;-77
2024/01/31 02:43:00;;;;;;;25.63;8.75;;;;;;;;;;5074653;28;20028;-77
2024/01/31 02:45:27;;;;;;;38.93;15.27;;;;;;;;;;5074301;28;20424;-77
2024/01/31 02:47:53;;;;;;;25.08;9.50;;;;;;;;;;5074475;28;20025;-77
2024/01/31 02:50:19;;;;;;;23.58;7.63;;;;;;;;;;5074297;28;20468;-77
2024/01/31 02:52:46;;;;;;;20.95;5.75;;;;;;;;;;5074434;28;20051;-78
2024/01/31 02:55:12;;;;;;;16.33;4.93;;;;;;;;;;5074306;28;20027;-77
2024/01/31 02:57:38;;;;;;;19.10;6.95;;;;;;;;;;5074030;28;20484;-77
2024/01/31 03:00:04;;;;;;;20.73;6.07;;;;;;;;;;5074266;28;20078;-77
2024/01/31 03:02:31;;;;;;;13.27;4.75;;;;;;;;;;5073907;28;20036;-78
2024/01/31 03:04:57;;;;;;;10.50;3.58;;;;;;;;;;5073793;28;20076;-78
2024/01/31 03:07:23;;;;;;;11.45;3.58;;;;;;;;;;5073958;28;20051;-77
2024/01/31 03:09:49;;;;;;;11.20;3.08;;;;;;;;;;5074251;28;20383;-77
2024/01/31 03:12:15;;;;;;;12.10;4.13;;;;;;;;;;5074967;28;20035;-77
2024/01/31 03:14:41;;;;;;;13.20;3.47;;;;;;;;;;5074680;28;20020;-77
2024/01/31 03:17:07;;;;;;;11.75;3.53;;;;;;;;;;5074065;28;20070;-77
2024/01/31 03:19:33;;;;;;;12.40;3.10;;;;;;;;;;5073711;28;20030;-77
2024/01/31 03:21:59;;;;;;;15.82;4.18;;;;;;;;;;5073749;28;20112;-77
2024/01/31 03:24:25;;;;;;;9.45;3.70;;;;;;;;;;5073625;28;20468;-78
2024/01/31 03:26:51;;;;;;;10.65;3.50;;;;;;;;;;5073808;28;20472;-78
2024/01/31 03:29:18;;;;;;;15.40;4.07;;;;;;;;;;5073670;28;20055;-78
2024/01/31 03:31:44;;;;;;;7.60;3.58;;;;;;;;;;5075044;28;20025;-77
2024/01/31 03:34:10;;;;;;;11.27;3.58;;;;;;;;;;5073532;28;20029;-77
2024/01/31 03:36:36;;;;;;;9.75;3.88;;;;;;;;;;5073297;28;20116;-77
2024/01/31 03:39:02;;;;;;;12.45;3.83;;;;;;;;;;5073490;28;20024;-78
2024/01/31 03:41:29;;;;;;;13.65;3.65;;;;;;;;;;5073307;28;20028;-77
2024/01/31 03:43:56;;;;;;;14.27;4.95;;;;;;;;;;5073538;28;20032;-78
2024/01/31 03:46:24;;;;;;;11.73;3.35;;;;;;;;;;5073176;28;20029;-77
2024/01/31 03:48:50;;;;;;;11.88;3.30;;;;;;;;;;5072520;28;20086;-77
2024/01/31 03:51:19;;;;;;;6.10;3.15;;;;;;;;;;5073365;28;20464;-78
2024/01/31 03:53:46;;;;;;;9.57;3.40;;;;;;;;;;5072989;28;20075;-78
2024/01/31 03:56:12;;;;;;;10.45;3.20;;;;;;;;;;5073378;28;20058;-78
2024/01/31 03:58:38;;;;;;;9.55;3.58;;;;;;;;;;5073074;28;20027;-78
2024/01/31 04:01:05;;;;;;;9.98;3.88;;;;;;;;;;5073183;28;20440;-78
2024/01/31 04:03:31;;;;;;;13.63;4.13;;;;;;;;;;5072881;28;20033;-76
2024/01/31 04:05:57;;;;;;;10.13;3.72;;;;;;;;;;5072717;28;20048;-77
2024/01/31 04:08:23;;;;;;;12.25;3.67;;;;;;;;;;5072831;28;20029;-77
2024/01/31 04:10:49;;;;;;;10.98;3.53;;;;;;;;;;5073027;28;20028;-77
2024/01/31 04:13:15;;;;;;;13.85;3.20;;;;;;;;;;5072919;28;20032;-77
2024/01/31 04:15:41;;;;;;;11.98;3.20;;;;;;;;;;5072626;28;20392;-77
2024/01/31 04:18:07;;;;;;;10.48;3.40;;;;;;;;;;5072741;28;20190;-77
2024/01/31 04:20:33;;;;;;;9.32;2.92;;;;;;;;;;5072379;28;20032;-77
2024/01/31 04:22:59;;;;;;;14.25;3.60;;;;;;;;;;5072834;28;20115;-76
2024/01/31 04:25:25;;;;;;;13.20;4.38;;;;;;;;;;5072394;28;20028;-76
2024/01/31 04:27:51;;;;;;;12.30;3.08;;;;;;;;;;5072697;28;20074;-76
2024/01/31 04:30:18;;;;;;;10.25;3.40;;;;;;;;;;5072708;28;20016;-78
2024/01/31 04:32:44;;;;;;;12.05;3.53;;;;;;;;;;5072334;28;20028;-78
2024/01/31 04:35:10;;;;;;;12.07;3.67;;;;;;;;;;5072429;28;20487;-78
2024/01/31 04:37:37;;;;;;;10.23;3.10;;;;;;;;;;5072225;28;20028;-78
2024/01/31 04:40:04;;;;;;;12.38;3.90;;;;;;;;;;5073459;28;20070;-77
2024/01/31 04:42:30;;;;;;;11.38;3.42;;;;;;;;;;5072170;28;20025;-77
2024/01/31 04:44:56;;;;;;;13.02;3.60;;;;;;;;;;5072271;28;20401;-76
2024/01/31 04:47:25;;;;;;;10.38;3.20;;;;;;;;;;5072325;28;20024;-76
2024/01/31 04:49:51;;;;;;;7.78;3.03;;;;;;;;;;5072399;28;20070;-77
2024/01/31 04:52:17;;;;;;;10.68;3.42;;;;;;;;;;5072223;28;20017;-77
2024/01/31 04:54:43;;;;;;;11.15;3.25;;;;;;;;;;5071762;28;20075;-77
2024/01/31 04:57:10;;;;;;;13.88;4.55;;;;;;;;;;5072005;28;20472;-76
2024/01/31 04:59:39;;;;;;;10.40;2.53;;;;;;;;;;5071730;28;20110;-76
2024/01/31 05:02:06;;;;;;;12.10;3.07;;;;;;;;;;5072075;28;20024;-76
2024/01/31 05:04:32;;;;;;;10.25;3.08;;;;;;;;;;5071628;28;20275;-76
2024/01/31 05:06:58;;;;;;;11.35;3.70;;;;;;;;;;5071693;28;20117;-77
2024/01/31 05:09:24;;;;;;;8.05;3.20;;;;;;;;;;5071875;28;20055;-78
2024/01/31 05:11:50;;;;;;;8.75;3.30;;;;;;;;;;5071520;28;20024;-78
2024/01/31 05:14:16;;;;;;;11.55;3.05;;;;;;;;;;5071688;28;20038;-77
2024/01/31 05:16:42;;;;;;;10.32;3.38;;;;;;;;;;5071439;28;20024;-77
2024/01/31 05:19:12;;;;;;;11.73;3.03;;;;;;;;;;5071653;28;20020;-77
2024/01/31 05:21:47;;;;;;;11.13;3.33;;;;;;;;;;5071290;28;20056;-77
2024/01/31 05:24:14;;;;;;;7.95;2.72;;;;;;;;;;5073176;28;20063;-77
2024/01/31 05:26:40;;;;;;;8.07;3.22;;;;;;;;;;5071572;28;20397;-77
2024/01/31 05:29:07;;;;;;;13.15;3.58;;;;;;;;;;5072228;28;20031;-77
2024/01/31 05:31:33;;;;;;;12.27;3.15;;;;;;;;;;5072028;28;20021;-77
2024/01/31 05:33:59;;;;;;;9.48;3.15;;;;;;;;;;5071541;28;20028;-76
2024/01/31 05:36:25;;;;;;;9.98;3.30;;;;;;;;;;5071609;28;20024;-77
2024/01/31 05:38:51;;;;;;;10.30;3.40;;;;;;;;;;5070991;28;20082;-78
2024/01/31 05:41:17;;;;;;;9.95;3.25;;;;;;;;;;5071284;28;20032;-77
2024/01/31 05:43:43;;;;;;;15.27;4.68;;;;;;;;;;5071025;28;20103;-78
2024/01/31 05:46:09;;;;;;;11.18;3.75;;;;;;;;;;5071181;28;20032;-77
2024/01/31 05:48:36;;;;;;;10.25;3.72;;;;;;;;;;5070846;28;20063;-76
2024/01/31 05:51:01;;;;;;;13.18;3.92;;;;;;;;;;5071247;28;20021;-78
2024/01/31 05:53:28;;;;;;;8.57;3.15;;;;;;;;;;5071056;28;20021;-78
2024/01/31 05:55:54;;;;;;;9.43;3.58;;;;;;;;;;5071169;28;20024;-79
2024/01/31 05:58:23;;;;;;;10.25;2.95;;;;;;;;;;5071056;28;20059;-79
2024/01/31 06:00:49;;;;;;;15.77;4.53;;;;;;;;;;5070815;28;20024;-79
2024/01/31 06:03:15;;;;;;;9.45;3.42;;;;;;;;;;5071064;28;20320;-78
2024/01/31 06:05:42;;;;;;;10.35;3.78;;;;;;;;;;5070303;28;20048;-78
2024/01/31 06:08:08;;;;;;;9.48;3.78;;;;;;;;;;5071227;28;20028;-77
2024/01/31 06:10:34;;;;;;;10.38;3.50;;;;;;;;;;5070865;28;20120;-77
2024/01/31 06:13:00;;;;;;;11.50;3.30;;;;;;;;;;5070669;28;20052;-78
2024/01/31 06:15:26;;;;;;;11.70;3.72;;;;;;;;;;5070811;28;20518;-77
2024/01/31 06:17:53;;;;;;;13.02;4.20;;;;;;;;;;5070582;28;20024;-78
2024/01/31 06:20:21;;;;;;;17.27;4.10;;;;;;;;;;5070724;28;20024;-78
2024/01/31 06:22:47;;;;;;;9.25;3.88;;;;;;;;;;5070507;28;20024;-77
2024/01/31 06:25:13;;;;;;;9.82;3.28;;;;;;;;;;5070846;28;20036;-77
2024/01/31 06:27:39;;;;;;;11.98;3.92;;;;;;;;;;5070497;28;20115;-77
2024/01/31 06:30:06;;;;;;;8.60;2.67;;;;;;;;;;5070638;28;20055;-78
2024/01/31 06:32:33;;;;;;;12.02;3.40;;;;;;;;;;5070386;28;20056;-77
2024/01/31 06:34:59;;;;;;;10.98;3.58;;;;;;;;;;5071815;28;20024;-77
2024/01/31 06:37:26;;;;;;;9.02;4.20;;;;;;;;;;5070520;28;20078;-78
2024/01/31 06:39:52;;;;;;;8.82;3.13;;;;;;;;;;5070322;28;20395;-78
2024/01/31 06:42:18;;;;;;;10.30;3.20;;;;;;;;;;5070614;28;20071;-77
2024/01/31 06:44:44;;;;;;;13.05;3.15;;;;;;;;;;5070368;28;20029;-79
2024/01/31 06:47:10;;;;;;;8.93;3.38;;;;;;;;;;5070570;28;20025;-80
2024/01/31 06:49:36;;;;;;;10.48;3.20;;;;;;;;;;5070045;28;20033;-78
2024/01/31 06:52:02;;;;;;;13.13;5.05;;;;;;;;;;5070541;28;20469;-78
2024/01/31 06:54:28;;;;;;;11.23;4.47;;;;;;;;;;5070179;28;20060;-77
2024/01/31 06:56:54;;;;;;;9.48;3.25;;;;;;;;;;5069871;28;20355;-76
2024/01/31 06:59:20;;;;;;;8.50;3.28;;;;;;;;;;5070287;28;20115;-76
2024/01/31 07:01:46;;;;;;;7.93;3.92;;;;;;;;;;5069864;28;20119;-77
2024/01/31 07:04:13;;;;;;;8.68;3.83;;;;;;;;;;5070260;28;20032;-78
2024/01/31 07:06:39;;;;;;;9.35;3.47;;;;;;;;;;5070047;28;20049;-78
2024/01/31 07:09:05;;;;;;;8.82;3.83;;;;;;;;;;5070321;28;20161;-78
2024/01/31 07:11:31;;;;;;;12.80;5.43;;;;;;;;;;5070232;28;20017;-78
2024/01/31 07:13:57;;;;;;;8.05;4.43;;;;;;;;;;5070249;28;20327;-79
2024/01/31 07:16:23;;;;;;;10.13;4.80;;;;;;;;;;5070100;28;20228;-77
2024/01/31 07:18:49;;;;;;;7.72;4.47;;;;;;;;;;5069700;28;20040;-77
2024/01/31 07:21:23;;;;;;;12.80;4.72;;;;;;;;;;5070025;28;20040;-77
2024/01/31 07:23:49;;;;;;;9.93;4.88;;;;;;;;;;5069890;28;20036;-77
2024/01/31 07:26:23;;;;;;;9.48;5.22;;;;;;;;;;5073800;28;20024;-80
2024/01/31 07:28:49;;;;;;;14.15;6.22;;;;;;;;;;5073623;28;20111;-83
2024/01/31 07:31:15;;;;;;;9.45;5.35;;;;;;;;;;5075600;28;20028;-80
2024/01/31 07:33:41;;;;;;;9.13;5.22;;;;;;;;;;5073800;28;20195;-81
2024/01/31 07:36:07;;;;;;;11.85;5.68;;;;;;;;;;5074244;28;20043;-81
2024/01/31 07:38:33;;;;;;;8.68;5.50;;;;;;;;;;5073770;28;20371;-81
2024/01/31 07:40:59;;;;;;;10.45;6.50;;;;;;;;;;5073872;28;20050;-79
2024/01/31 07:43:25;;;;;;;10.35;4.55;;;;;;;;;;5073941;28;20032;-80
2024/01/31 07:45:52;;;;;;;10.18;4.68;;;;;;;;;;5074822;28;20025;-79
2024/01/31 07:48:19;;;;;;;12.38;5.30;;;;;;;;;;5077393;28;20043;-78
2024/01/31 07:50:45;;;;;;;10.90;6.10;;;;;;;;;;5092425;28;20056;-78
2024/01/31 07:53:11;;;;;;;9.18;5.88;;;;;;;;;;5087102;28;20025;-78
2024/01/31 07:55:37;;;;;;;12.05;7.00;;;;;;;;;;5081485;28;20102;-80
2024/01/31 07:58:03;;;;;;;8.90;5.53;;;;;;;;;;5074509;28;20039;-80
2024/01/31 08:00:29;;;;;;;11.38;5.53;;;;;;;;;;5073462;28;20503;-80
2024/01/31 08:02:55;;;;;;;10.68;5.90;;;;;;;;;;5072958;28;20115;-80
2024/01/31 08:05:21;;;;;;;10.27;6.43;;;;;;;;;;5072998;28;20067;-80
2024/01/31 08:07:47;;;;;;;11.07;5.75;;;;;;;;;;5074519;28;20020;-79
2024/01/31 08:10:13;;;;;;;14.32;6.95;;;;;;;;;;5073390;28;20494;-80
2024/01/31 08:12:44;;;;;;;10.15;6.32;;;;;;;;;;5072642;28;20029;-80
2024/01/31 08:15:10;;;;;;;10.93;5.95;;;;;;;;;;5073079;28;20472;-81
2024/01/31 08:17:36;;;;;;;13.63;6.88;;;;;;;;;;5072802;28;20119;-80
2024/01/31 08:20:03;;;;;;;11.90;6.93;;;;;;;;;;5073047;28;20081;-80
2024/01/31 08:22:32;;;;;;;12.25;7.20;;;;;;;;;;5072756;28;20036;-80
2024/01/31 08:24:58;;;;;;;12.35;6.50;;;;;;;;;;5072677;28;20070;-80
2024/01/31 08:27:24;;;;;;;10.80;6.40;;;;;;;;;;5073891;28;20098;-80
2024/01/31 08:29:54;;;;;;;12.73;7.72;;;;;;;;;;5072678;28;20039;-80
2024/01/31 08:32:20;;;;;;;12.43;6.60;;;;;;;;;;5072836;28;20024;-80
2024/01/31 08:34:46;;;;;;;11.52;7.38;;;;;;;;;;5071951;28;20036;-81
2024/01/31 08:37:12;;;;;;;12.98;7.35;;;;;;;;;;5072583;28;20025;-80
2024/01/31 08:39:38;;;;;;;12.45;7.32;;;;;;;;;;5072441;28;20090;-81
2024/01/31 08:42:05;;;;;;;11.93;7.47;;;;;;;;;;5072636;28;20032;-81
2024/01/31 08:44:31;;;;;;;14.70;7.80;;;;;;;;;;5072276;28;20031;-79
2024/01/31 08:46:58;;;;;;;11.20;7.78;;;;;;;;;;5071934;28;20380;-79
2024/01/31 08:49:24;;;;;;;12.30;6.75;;;;;;;;;;5072228;28;20024;-80
2024/01/31 08:51:53;;;;;;;14.07;7.57;;;;;;;;;;5071858;28;20070;-80
2024/01/31 08:54:19;;;;;;;15.02;8.05;;;;;;;;;;5072312;28;20032;-81
2024/01/31 08:56:45;;;;;;;17.55;8.38;;;;;;;;;;5072022;28;20031;-79
2024/01/31 08:59:12;;;;;;;10.82;7.50;;;;;;;;;;5073431;28;20032;-79
2024/01/31 09:01:42;;;;;;;14.90;7.47;;;;;;;;;;5071792;28;20020;-79
2024/01/31 09:04:08;;;;;;;13.57;7.90;;;;;;;;;;5071718;28;20021;-79
2024/01/31 09:06:35;;;;;;;20.88;8.23;;;;;;;;;;5071497;28;20044;-80
2024/01/31 09:09:01;;;;;;;12.40;7.07;;;;;;;;;;5071392;28;20033;-81
2024/01/31 09:11:27;;;;;;;15.05;7.95;;;;;;;;;;5071345;28;20122;-80
2024/01/31 09:13:53;;;;;;;13.77;8.30;;;;;;;;;;5071111;28;20063;-80
2024/01/31 09:16:19;;;;;;;13.98;8.38;;;;;;;;;;5071595;28;20029;-81
2024/01/31 09:18:45;;;;;;;15.70;8.48;;;;;;;;;;5071427;28;20059;-80
2024/01/31 09:21:18;;;;;;;12.75;7.72;;;;;;;;;;5071351;28;20165;-80
2024/01/31 09:23:44;;;;;;;16.75;8.18;;;;;;;;;;5072146;28;20023;-80
2024/01/31 09:26:11;;;;;;;12.77;7.07;;;;;;;;;;5072834;28;20016;-81
2024/01/31 09:28:38;;;;;;;12.55;6.50;;;;;;;;;;5071041;28;20487;-80
2024/01/31 09:31:04;;;;;;;15.00;8.05;;;;;;;;;;5071371;28;20020;-80
2024/01/31 09:33:30;;;;;;;14.35;7.38;;;;;;;;;;5071356;28;20375;-81
2024/01/31 09:35:56;;;;;;;14.05;6.47;;;;;;;;;;5071100;28;20029;-80
2024/01/31 09:38:25;;;;;;;11.23;6.15;;;;;;;;;;5071397;28;20031;-80
2024/01/31 09:40:51;;;;;;;15.93;8.27;;;;;;;;;;5070807;28;20035;-80
2024/01/31 09:43:17;;;;;;;14.15;7.45;;;;;;;;;;5070970;28;20079;-81
2024/01/31 09:45:44;;;;;;;12.02;6.65;;;;;;;;;;5070667;28;20120;-80
2024/01/31 09:48:11;;;;;;;12.20;7.68;;;;;;;;;;5070616;28;20468;-80
2024/01/31 09:50:37;;;;;;;13.40;7.82;;;;;;;;;;5071011;28;20521;-81
2024/01/31 09:53:03;;;;;;;12.07;8.07;;;;;;;;;;5070986;28;20079;-80
2024/01/31 09:55:29;;;;;;;15.70;8.05;;;;;;;;;;5071229;28;20056;-81
2024/01/31 09:57:55;;;;;;;14.52;8.18;;;;;;;;;;5071090;28;20020;-81
2024/01/31 10:00:22;;;;;;;16.40;8.35;;;;;;;;;;5071186;28;20025;-80
2024/01/31 10:02:49;;;;;;;14.80;9.05;;;;;;;;;;5071007;28;20032;-80
2024/01/31 10:05:15;;;;;;;13.05;8.60;;;;;;;;;;5071203;28;20531;-80
2024/01/31 10:07:41;;;;;;;16.17;8.77;;;;;;;;;;5072474;28;20021;-79
2024/01/31 10:10:07;;;;;;;16.33;8.52;;;;;;;;;;5077354;28;20032;-80
2024/01/31 10:12:33;;;;;;;17.65;10.70;;;;;;;;;;5078673;28;20025;-79
2024/01/31 10:14:59;;;;;;;15.90;9.38;;;;;;;;;;5078341;28;20047;-79
2024/01/31 10:17:26;;;;;;;30.30;11.48;;;;;;;;;;5070727;28;20107;-81
2024/01/31 10:19:52;;;;;;;22.83;11.73;;;;;;;;;;5070536;28;20047;-80
2024/01/31 10:22:18;;;;;;;19.75;8.98;;;;;;;;;;5070708;28;20024;-80
2024/01/31 10:24:50;;;;;;;20.23;9.75;;;;;;;;;;5070554;28;20357;-80
2024/01/31 10:27:21;;;;;;;16.50;10.13;;;;;;;;;;5070682;28;20028;-80
2024/01/31 10:29:48;;;;;;;23.98;13.15;;;;;;;;;;5070209;28;20066;-80
2024/01/31 10:32:17;;;;;;;27.38;14.05;;;;;;;;;;5071083;28;20078;-81
2024/01/31 10:34:44;;;;;;;27.15;15.10;;;;;;;;;;5070569;28;20059;-80
2024/01/31 10:37:11;;;;;;;28.58;15.50;;;;;;;;;;5070766;28;20472;-80
2024/01/31 10:39:38;;;;;;;26.13;14.88;;;;;;;;;;5070710;28;20024;-79
2024/01/31 10:42:06;;;;;;;30.60;15.77;;;;;;;;;;5070633;28;20036;-81
2024/01/31 10:44:32;;;;;;;33.53;15.93;;;;;;;;;;5070427;28;20025;-79
2024/01/31 10:46:58;;;;;;;28.45;15.48;;;;;;;;;;5070140;28;20024;-80
2024/01/31 10:49:24;;;;;;;29.95;14.60;;;;;;;;;;5070387;28;20474;-81
2024/01/31 10:51:51;;;;;;;40.35;21.08;;;;;;;;;;5070082;28;20056;-80
2024/01/31 10:54:18;;;;;;;31.83;16.17;;;;;;;;;;5071585;28;20020;-79
2024/01/31 10:56:45;;;;;;;37.28;19.92;;;;;;;;;;5070255;28;20029;-79
2024/01/31 10:59:12;;;;;;;29.00;15.88;;;;;;;;;;5072948;28;20119;-81
2024/01/31 11:01:38;;;;;;;36.20;20.02;;;;;;;;;;5074341;28;20028;-80
2024/01/31 11:04:08;;;;;;;31.30;16.80;;;;;;;;;;5074094;28;20036;-80
2024/01/31 11:06:40;;;;;;;32.58;16.98;;;;;;;;;;5074071;28;20105;-79
2024/01/31 11:09:08;;;;;;;43.03;23.55;;;;;;;;;;5074188;28;20407;-80
2024/01/31 11:11:34;;;;;;;49.22;24.05;;;;;;;;;;5074244;28;20035;-79
2024/01/31 11:14:11;;;;;;;45.78;23.45;;;;;;;;;;5073902;28;20028;-79
2024/01/31 11:16:37;;;;;;;35.58;17.92;;;;;;;;;;5074166;28;20031;-80
2024/01/31 11:19:07;;;;;;;45.90;22.65;;;;;;;;;;5073767;28;20074;-80
2024/01/31 11:21:39;;;;;;;48.07;25.50;;;;;;;;;;5073719;28;20017;-80
2024/01/31 11:24:06;;;;;;;49.13;26.02;;;;;;;;;;5073528;28;20024;-79
2024/01/31 11:26:35;;;;;;;48.50;25.33;;;;;;;;;;5073868;28;20040;-80
2024/01/31 11:29:01;;;;;;;41.53;22.67;;;;;;;;;;5073600;28;20146;-80
2024/01/31 11:31:28;;;;;;;55.38;25.73;;;;;;;;;;5073506;28;20016;-80
2024/01/31 11:33:56;;;;;;;44.50;23.15;;;;;;;;;;5074987;28;20486;-80
2024/01/31 11:36:22;;;;;;;41.63;24.83;;;;;;;;;;5073773;28;20025;-80
2024/01/31 11:38:48;;;;;;;50.65;28.38;;;;;;;;;;5073443;28;20032;-80
2024/01/31 11:41:14;;;;;;;55.00;26.48;;;;;;;;;;5073459;28;20112;-80
2024/01/31 11:43:40;;;;;;;48.28;23.85;;;;;;;;;;5073246;28;20461;-80
2024/01/31 11:46:07;;;;;;;50.38;27.10;;;;;;;;;;5073421;28;20029;-79
2024/01/31 11:48:33;;;;;;;35.40;18.17;;;;;;;;;;5073513;28;20021;-80
2024/01/31 11:50:59;;;;;;;38.30;19.85;;;;;;;;;;5074721;28;20104;-80
2024/01/31 11:53:25;;;;;;;47.53;25.63;;;;;;;;;;5073458;28;20060;-80
2024/01/31 11:55:51;;;;;;;37.25;19.20;;;;;;;;;;5073014;28;20132;-79
2024/01/31 11:58:17;;;;;;;37.95;18.35;;;;;;;;;;5073337;28;20032;-80
2024/01/31 12:00:44;;;;;;;44.63;25.55;;;;;;;;;;5073396;28;20028;-79
2024/01/31 12:03:11;;;;;;;45.15;23.15;;;;;;;;;;5073049;28;20021;-80
2024/01/31 12:05:37;;;;;;;34.67;18.80;;;;;;;;;;5073032;28;20412;-81
2024/01/31 12:08:04;;;;;;;42.10;23.50;;;;;;;;;;5074146;28;20030;-79
2024/01/31 12:10:30;;;;;;;31.38;17.77;;;;;;;;;;5072225;28;20024;-80
2024/01/31 12:12:57;;;;;;;43.80;20.67;;;;;;;;;;5072951;28;20533;-80
2024/01/31 12:15:23;;;;;;;38.83;21.20;;;;;;;;;;5072731;28;20032;-80
2024/01/31 12:17:50;;;;;;;37.97;20.75;;;;;;;;;;5072691;28;20469;-80
2024/01/31 12:20:17;;;;;;;33.97;18.52;;;;;;;;;;5073087;28;20384;-79
2024/01/31 12:22:46;;;;;;;33.03;17.73;;;;;;;;;;5074642;28;20024;-80
2024/01/31 12:25:13;;;;;;;38.78;19.27;;;;;;;;;;5074325;28;20535;-78
2024/01/31 12:27:39;;;;;;;32.50;18.58;;;;;;;;;;5081991;28;20088;-78
2024/01/31 12:30:05;;;;;;;28.40;17.85;;;;;;;;;;5084679;28;20031;-79
2024/01/31 12:32:31;;;;;;;36.13;19.05;;;;;;;;;;5084361;28;20024;-78
2024/01/31 12:34:57;;;;;;;24.02;12.95;;;;;;;;;;5073295;28;20039;-80
2024/01/31 12:37:23;;;;;;;29.38;17.38;;;;;;;;;;5072592;28;20047;-80
2024/01/31 12:39:50;;;;;;;26.60;16.58;;;;;;;;;;5072265;28;20028;-80
2024/01/31 12:42:16;;;;;;;30.50;17.98;;;;;;;;;;5072345;28;20030;-79
2024/01/31 12:44:42;;;;;;;21.55;13.30;;;;;;;;;;5072267;28;20531;-80
2024/01/31 12:47:09;;;;;;;24.40;12.70;;;;;;;;;;5071930;28;20028;-80
2024/01/31 12:49:39;;;;;;;22.00;14.38;;;;;;;;;;5072119;28;20024;-80
2024/01/31 12:52:06;;;;;;;24.55;15.73;;;;;;;;;;5071886;28;20601;-79
2024/01/31 12:54:32;;;;;;;26.45;14.43;;;;;;;;;;5071899;28;20127;-80
2024/01/31 12:56:58;;;;;;;18.92;12.07;;;;;;;;;;5071863;28;20028;-80
2024/01/31 12:59:24;;;;;;;20.88;14.65;;;;;;;;;;5072085;28;20025;-80
2024/01/31 13:01:51;;;;;;;19.55;11.40;;;;;;;;;;5071521;28;20031;-80
2024/01/31 13:04:17;;;;;;;18.90;12.50;;;;;;;;;;5071912;28;20477;-81
2024/01/31 13:06:43;;;;;;;17.30;12.38;;;;;;;;;;5071624;28;20129;-79
2024/01/31 13:09:09;;;;;;;15.77;11.57;;;;;;;;;;5071742;28;20024;-79
2024/01/31 13:11:38;;;;;;;12.98;9.30;;;;;;;;;;5072228;28;20388;-80
2024/01/31 13:14:05;;;;;;;15.90;12.07;;;;;;;;;;5071452;28;20028;-81
2024/01/31 13:16:33;;;;;;;16.30;12.68;;;;;;;;;;5071859;28;20025;-80
2024/01/31 13:18:59;;;;;;;15.48;11.15;;;;;;;;;;5071709;28;20261;-81
2024/01/31 13:21:25;;;;;;;17.00;12.13;;;;;;;;;;5070717;28;20120;-79
2024/01/31 13:23:52;;;;;;;17.30;11.60;;;;;;;;;;5071267;28;20510;-80
2024/01/31 13:26:18;;;;;;;14.80;11.32;;;;;;;;;;5071681;28;20021;-80
2024/01/31 13:28:44;;;;;;;15.50;12.15;;;;;;;;;;5071726;28;20024;-80
2024/01/31 13:31:10;;;;;;;18.33;12.40;;;;;;;;;;5071454;28;20030;-80
2024/01/31 13:33:37;;;;;;;15.68;10.65;;;;;;;;;;5071619;28;20028;-79
2024/01/31 13:36:03;;;;;;;14.27;11.75;;;;;;;;;;5071237;28;20047;-80
2024/01/31 13:38:29;;;;;;;15.80;12.50;;;;;;;;;;5071356;28;20016;-80
2024/01/31 13:40:55;;;;;;;16.77;11.55;;;;;;;;;;5071046;28;20074;-78
2024/01/31 13:43:21;;;;;;;14.77;11.52;;;;;;;;;;5071348;28;20365;-78
2024/01/31 13:45:47;;;;;;;14.20;10.98;;;;;;;;;;5070870;28;20518;-79
2024/01/31 13:48:13;;;;;;;16.67;10.60;;;;;;;;;;5071276;28;20020;-79
2024/01/31 13:50:39;;;;;;;15.43;11.93;;;;;;;;;;5071304;28;20021;-78
2024/01/31 13:53:05;;;;;;;15.57;10.57;;;;;;;;;;5071155;28;20024;-79
2024/01/31 13:55:32;;;;;;;14.20;9.73;;;;;;;;;;5071026;28;20029;-79
2024/01/31 13:57:58;;;;;;;15.25;9.57;;;;;;;;;;5070919;28;20025;-80
2024/01/31 14:00:24;;;;;;;13.00;8.50;;;;;;;;;;5071366;28;20016;-79
2024/01/31 14:02:50;;;;;;;12.77;8.63;;;;;;;;;;5071019;28;20020;-79
2024/01/31 14:05:16;;;;;;;9.60;6.35;;;;;;;;;;5071090;28;20029;-79
2024/01/31 14:07:42;;;;;;;12.07;7.57;;;;;;;;;;5070855;28;20062;-79
2024/01/31 14:10:08;;;;;;;12.48;7.43;;;;;;;;;;5070809;28;20099;-79
2024/01/31 14:12:34;;;;;;;13.75;7.65;;;;;;;;;;5071051;28;20028;-78
2024/01/31 14:15:01;;;;;;;16.25;8.23;;;;;;;;;;5070755;28;20025;-80
2024/01/31 14:17:28;;;;;;;11.60;7.85;;;;;;;;;;5071004;28;20374;-80
2024/01/31 14:19:54;;;;;;;10.43;6.70;;;;;;;;;;5072192;28;20025;-79
2024/01/31 14:22:19;;;;;;;10.32;6.95;;;;;;;;;;5071006;28;20464;-79
2024/01/31 14:24:46;;;;;;;16.25;8.73;;;;;;;;;;5071029;28;20032;-80